Impacts METAR Board
IDs:

KLGA - New York/La Guardia, NY, US

Updated at: 1100 UTC 23 May 2018
Potential Impact None Slight Moderate High
Time 22/23Z 23/00Z 23/01Z 23/02Z 23/03Z 23/04Z 23/05Z 23/06Z 23/07Z 23/08Z 23/09Z 23/10Z 23/11Z
Temp57 57 57 58 58 58 58 58 59 60 60 61 62
Dewpt53 54 53 54 55 55 55 55 56 58 58 58 59
Altim30.03 30.00 30.00 30.00 29.98 29.96 29.94 29.93 29.91 29.88 29.90 29.89 29.90
VIS6 10 10 8 8 5 3 3 3 2 3 3 8
CIG8 6 6 6 7 6 9 8 10 8 12 110 130
CoverOVCOVCOVCOVCOVCOVCOVCOVCOVCOVCOVCBKNBKN
FltCatIFRIFRIFRIFRIFRIFRIFRIFRMVFRIFRMVFRMVFRVFR
WXBR--------BRBRBR-RA BR-RA BR-RA BRBR--
WDir50504040803050500170000
WSpd4 6 5 4 3 5 3 5 0 6 0 0 0
WGst-- -- -- -- -- -- -- -- -- -- -- -- --
Raw hourly METARs
KLGA 222251Z 05004KT 6SM BR OVC008 14/12 A3003 RMK AO2 RAB28E43 SLP168 P0000 T01390117 $
KLGA 230000Z 05006KT 10SM OVC006 14/12 A3000 RMK AO2 T01390122 $
KLGA 230051Z 04005KT 10SM OVC006 14/12 A3000 RMK AO2 SLP158 T01390117 $
KLGA 230202Z 04004KT 8SM OVC006 14/12 A3000 RMK AO2 T01440122 $
KLGA 230251Z 08003KT 8SM OVC007 14/13 A2998 RMK AO2 SLP152 T01440128 58009 $
KLGA 230351Z 03005KT 5SM BR OVC006 14/13 A2996 RMK AO2 SLP145 T01440128 $
KLGA 230451Z 05003KT 3SM BR OVC009 14/13 A2994 RMK AO2 SFC VIS 4 SLP137 T01440128 402110133 $
KLGA 230551Z 05005KT 3SM BR OVC008 14/13 A2993 RMK AO2 SFC VIS 4 SLP135 T01440128 10144 20139 56017 $
KLGA 230651Z 00000KT 3SM -RA BR SCT006 OVC010 15/13 A2991 RMK AO2 SFC VIS 4 RAB34 SLP129 P0001 T01500133 $
KLGA 230751Z 17006KT 2SM -RA BR BKN008 BKN038 OVC100 16/14 A2988 RMK AO2 SFC VIS 3 LTG DSNT SW SLP119 P0015 T01560144 $
KLGA 230851Z 00000KT 3SM -RA BR SCT006 OVC012 16/14 A2990 RMK AO2 SFC VIS 4 LTG DSNT SE SLP124 P0005 60021 T01560144 55010 $
KLGA 230951Z 00000KT 3SM BR FEW007 SCT012 BKN110 BKN160 16/14 A2989 RMK AO2 SFC VIS 5 RAE0857 SLP120 P0000 T01610144 $
KLGA 231051Z 00000KT 8SM FEW065 SCT100 BKN130 BKN250 17/15 A2990 RMK AO2 SLP125 T01670150 $



Page loaded:  11:11 UTC  |   04:11 AM Pacific  |   05:11 AM Mountain  |   06:11 AM Central  |   07:11 AM Eastern

 

ADVISORIES

FORECASTS

FORECASTS

OBSERVATIONS

USER TOOLS

ABOUT US